Etusivu
METAR-TAF:

METAR-TAF

Lentoasemat :

Šiauliai, Liettua

Leveyspiiri: 55-53-38N, Pituuspiiri: 023-23-42E, korkeus merenpinnasta: 135 m

Tämänhetkinen sää

Tämä raportti tehtiin 18 minuuttia sitten, kello 13.20 UTC
Tuuli 9 kn pohjoisesta/koillisesta, vaihdellen pohjoisen ja idän/koillisen välillä
Lämpötila 24°C
Kosteus 38%
Ilmanpaine 1025 hPa
Näkyvyys 10 km tai enemmän
ei pilviä alle 1500 m:ssä eikä cumulonimbus-pilviä

METAR: EYSA 241320Z 02009KT 350V060 CAVOK 24/09 Q1025 BLU NOSIG

Aika: 16:38 (13:38 UTC)

Sääennuste

Tämä raportti tehtiin 2 tuntia ja 34 minuuttia sitten, kello 11.04 UTC
Ennuste voimassa 24. päivästä klo 12 UTC - 24. päivään klo 21 UTC
Tuuli 10 kn pohjoisesta puuskistuen 22 kn:hen
Näkyvyys 10 km tai enemmän
ei pilviä alle 1500 m:ssä eikä cumulonimbus-pilviä

TAF: EYSA 241104Z 2412/2421 01010G22KT CAVOK

Säähavainnot ja -ennusteet yli 4000 lentoasemalta (METAR- ja TAF-raportit).

Käytössä olevat sääasemat on merkitty karttaan keltaisilla ja punaisilla pisteillä.

Aseta hiiri pisteen päälle nähdäksesi sääaseman nimen.

Klikkaa sitten nähdäksesi säähavainnot ja -ennusteet.

Kartan vaihtaminen: klikkaa mustalla rastilla varustettuja vihreitä pisteitä, niin voit zoomata sisään; viivalla varustettua vihreää pistettä, niin voit zoomata ulos tai vihreitä nuolia, niin pääset viereisille kartoille.


METAR-TAF: